Elsmere, Kentucky
Current Conditions -  °F | °C
As of 10:52 AM on Friday 19 Dec 2014 (Local Time) from KCVG Reporting Station
Overcast Overcast  
Wind Chill: 23°   Ceiling: 1900
Heat Index: 29°   Visibility: 9mi
Dew Point: 18°   Wind: 6mph
Humidity: 64%   Direction: 40°NE
Pressure: 30.29"   Gusts: NA
Location:  39.017°N, 84.607°W
Report Text: KCVG 191552Z 04005KT 9SM OVC019 M02/M08 A3029 RMK AO2 SLP265 T10171078
Loading
Personal Weather Stations






























Interactive Weather Map New forecast layout! Learn more

10-Day Weather Forecast

Advertisements
Track Severe Weather on mobile